X  SluitMETAR luchtvaart weer gegevens      EHRD Rotterdam

Temperatuur

10°C Temperatuur

9°C Dauwpunt

94% Vochtigheid



Wind

45 KM/U

28 MPH

13 M/S

24 KTS



240°
West Zuid
West
Huidig weer

Geheel bewolkt Geheel bewolkt
Luchtdruk 1002.92 (hPa) - 29.62 (in)
Zicht 6.2 (mi) - 10 (km)
Vliegveld
Vliegveld code EHRD

Locatie Rotterdam 16 (km)

Metar:
EHRD 241825Z AUTO 24024G36KT 210V270 9999 OVC010 10/09 Q1003 NOSIG

Tijd: 24-02-2020 19:25